sensor_id;sensor_type;location;lat;lon;timestamp;pressure;altitude;pressure_sealevel;temperature;humidity
20656;BME280;10487;53.320;8.672;2023-02-15T00:02:06;102740.50;;;0.08;62.66
20656;BME280;10487;53.320;8.672;2023-02-15T00:05:08;102742.25;;;0.05;62.66
20656;BME280;10487;53.320;8.672;2023-02-15T00:08:10;102736.09;;;0.01;62.83
20656;BME280;10487;53.320;8.672;2023-02-15T00:11:16;102736.97;;;-0.01;62.68
20656;BME280;10487;53.320;8.672;2023-02-15T00:14:38;102729.09;;;-0.06;62.67
20656;BME280;10487;53.320;8.672;2023-02-15T00:17:40;102727.34;;;-0.10;62.63
20656;BME280;10487;53.320;8.672;2023-02-15T00:20:41;102728.19;;;-0.14;62.71
20656;BME280;10487;53.320;8.672;2023-02-15T00:23:43;102722.94;;;-0.18;62.72
20656;BME280;10487;53.320;8.672;2023-02-15T00:26:46;102721.19;;;-0.21;63.10
20656;BME280;10487;53.320;8.672;2023-02-15T00:29:48;102717.72;;;-0.24;62.81
20656;BME280;10487;53.320;8.672;2023-02-15T00:32:49;102715.94;;;-0.28;62.57
20656;BME280;10487;53.320;8.672;2023-02-15T00:35:56;102717.69;;;-0.30;62.61
20656;BME280;10487;53.320;8.672;2023-02-15T00:38:58;102709.81;;;-0.35;62.89
20656;BME280;10487;53.320;8.672;2023-02-15T00:42:00;102712.41;;;-0.38;62.68
20656;BME280;10487;53.320;8.672;2023-02-15T00:45:01;102701.06;;;-0.42;62.85
20656;BME280;10487;53.320;8.672;2023-02-15T00:48:03;102701.06;;;-0.42;63.03
20656;BME280;10487;53.320;8.672;2023-02-15T00:51:05;102695.78;;;-0.45;62.91
20656;BME280;10487;53.320;8.672;2023-02-15T00:54:07;102696.66;;;-0.47;62.67
20656;BME280;10487;53.320;8.672;2023-02-15T00:57:08;102691.41;;;-0.52;62.78
20656;BME280;10487;53.320;8.672;2023-02-15T01:00:10;102689.66;;;-0.54;62.87
20656;BME280;10487;53.320;8.672;2023-02-15T01:03:14;102688.78;;;-0.56;62.86
20656;BME280;10487;53.320;8.672;2023-02-15T01:06:16;102691.38;;;-0.59;62.70
20656;BME280;10487;53.320;8.672;2023-02-15T01:09:18;102683.50;;;-0.62;62.70
20656;BME280;10487;53.320;8.672;2023-02-15T01:12:19;102678.28;;;-0.64;62.84
20656;BME280;10487;53.320;8.672;2023-02-15T01:15:21;102679.09;;;-0.68;62.88
20656;BME280;10487;53.320;8.672;2023-02-15T01:18:23;102675.63;;;-0.70;62.83
20656;BME280;10487;53.320;8.672;2023-02-15T01:21:25;102674.72;;;-0.70;62.89
20656;BME280;10487;53.320;8.672;2023-02-15T01:24:27;102669.47;;;-0.73;62.86
20656;BME280;10487;53.320;8.672;2023-02-15T01:27:29;102665.97;;;-0.75;62.74
20656;BME280;10487;53.320;8.672;2023-02-15T01:30:32;102665.09;;;-0.80;62.79
20656;BME280;10487;53.320;8.672;2023-02-15T01:33:35;102664.22;;;-0.82;62.88
20656;BME280;10487;53.320;8.672;2023-02-15T01:36:37;102666.84;;;-0.82;63.01
20656;BME280;10487;53.320;8.672;2023-02-15T01:39:38;102667.72;;;-0.83;62.88
20656;BME280;10487;53.320;8.672;2023-02-15T01:42:40;102665.97;;;-0.84;62.95
20656;BME280;10487;53.320;8.672;2023-02-15T01:45:42;102670.34;;;-0.83;62.88
20656;BME280;10487;53.320;8.672;2023-02-15T01:48:52;102667.72;;;-0.83;63.06
20656;BME280;10487;53.320;8.672;2023-02-15T01:51:55;102666.84;;;-0.84;63.00
20656;BME280;10487;53.320;8.672;2023-02-15T01:54:57;102665.06;;;-0.85;62.94
20656;BME280;10487;53.320;8.672;2023-02-15T01:57:59;102663.31;;;-0.87;62.87
20656;BME280;10487;53.320;8.672;2023-02-15T02:01:01;102662.44;;;-0.85;63.11
20656;BME280;10487;53.320;8.672;2023-02-15T02:07:16;102651.09;;;-0.78;63.09
20656;BME280;10487;53.320;8.672;2023-02-15T02:10:21;102650.22;;;-0.78;63.04
20656;BME280;10487;53.320;8.672;2023-02-15T02:13:26;102644.97;;;-0.78;62.98
20656;BME280;10487;53.320;8.672;2023-02-15T02:26:19;102637.16;;;-0.68;62.96
20656;BME280;10487;53.320;8.672;2023-02-15T02:29:51;102632.78;;;-0.67;63.08
20656;BME280;10487;53.320;8.672;2023-02-15T02:36:35;102630.19;;;-0.69;62.93
20656;BME280;10487;53.320;8.672;2023-02-15T02:39:49;102626.66;;;-0.68;63.09
20656;BME280;10487;53.320;8.672;2023-02-15T02:42:59;102621.41;;;-0.71;62.77
20656;BME280;10487;53.320;8.672;2023-02-15T02:46:12;102616.16;;;-0.78;62.92
20656;BME280;10487;53.320;8.672;2023-02-15T02:49:15;102607.41;;;-0.89;62.86
20656;BME280;10487;53.320;8.672;2023-02-15T02:52:44;102603.88;;;-0.99;62.95
20656;BME280;10487;53.320;8.672;2023-02-15T02:55:50;102595.09;;;-1.07;62.97
20656;BME280;10487;53.320;8.672;2023-02-15T02:59:11;102603.81;;;-1.16;63.24
20656;BME280;10487;53.320;8.672;2023-02-15T03:02:21;102599.41;;;-1.23;63.29
20656;BME280;10487;53.320;8.672;2023-02-15T03:05:27;102601.13;;;-1.28;63.38
20656;BME280;10487;53.320;8.672;2023-02-15T03:08:38;102594.13;;;-1.32;63.41
20656;BME280;10487;53.320;8.672;2023-02-15T03:11:43;102594.13;;;-1.35;63.53
20656;BME280;10487;53.320;8.672;2023-02-15T03:14:49;102595.88;;;-1.34;63.49
20656;BME280;10487;53.320;8.672;2023-02-15T03:17:57;102592.41;;;-1.31;63.45
20656;BME280;10487;53.320;8.672;2023-02-15T03:21:05;102589.78;;;-1.30;63.64
20656;BME280;10487;53.320;8.672;2023-02-15T03:24:21;102594.16;;;-1.29;63.41
20656;BME280;10487;53.320;8.672;2023-02-15T03:27:32;102605.53;;;-1.28;63.54
20656;BME280;10487;53.320;8.672;2023-02-15T03:30:37;102597.66;;;-1.27;63.67
20656;BME280;10487;53.320;8.672;2023-02-15T03:33:45;102600.28;;;-1.24;63.33
20656;BME280;10487;53.320;8.672;2023-02-15T03:36:59;102595.94;;;-1.23;63.49
20656;BME280;10487;53.320;8.672;2023-02-15T03:43:53;102589.78;;;-1.25;63.36
20656;BME280;10487;53.320;8.672;2023-02-15T03:47:17;102586.31;;;-1.29;63.43
20656;BME280;10487;53.320;8.672;2023-02-15T03:50:31;102588.88;;;-1.35;63.18
20656;BME280;10487;53.320;8.672;2023-02-15T03:53:54;102579.25;;;-1.39;63.26
20656;BME280;10487;53.320;8.672;2023-02-15T03:56:57;102570.50;;;-1.47;63.21
20656;BME280;10487;53.320;8.672;2023-02-15T04:00:21;102572.22;;;-1.53;63.42
20656;BME280;10487;53.320;8.672;2023-02-15T04:03:46;102568.69;;;-1.63;63.49
20656;BME280;10487;53.320;8.672;2023-02-15T04:06:49;102560.78;;;-1.69;63.57
20656;BME280;10487;53.320;8.672;2023-02-15T04:09:50;102553.78;;;-1.76;63.61
20656;BME280;10487;53.320;8.672;2023-02-15T04:13:10;102551.97;;;-1.82;63.67
20656;BME280;10487;53.320;8.672;2023-02-15T04:16:12;102559.81;;;-1.86;63.38
20656;BME280;10487;53.320;8.672;2023-02-15T04:19:14;102559.81;;;-1.88;63.61
20656;BME280;10487;53.320;8.672;2023-02-15T04:22:34;102555.41;;;-1.92;63.79
20656;BME280;10487;53.320;8.672;2023-02-15T04:25:54;102561.50;;;-1.94;63.87
20656;BME280;10487;53.320;8.672;2023-02-15T04:28:55;102560.66;;;-1.93;63.86
20656;BME280;10487;53.320;8.672;2023-02-15T04:31:59;102562.41;;;-1.89;63.57
20656;BME280;10487;53.320;8.672;2023-02-15T04:35:02;102558.06;;;-1.89;63.80
20656;BME280;10487;53.320;8.672;2023-02-15T04:38:04;102550.19;;;-1.90;63.63
20656;BME280;10487;53.320;8.672;2023-02-15T04:41:06;102554.53;;;-1.92;63.66
20656;BME280;10487;53.320;8.672;2023-02-15T04:44:07;102550.19;;;-1.90;63.51
20656;BME280;10487;53.320;8.672;2023-02-15T04:47:09;102550.19;;;-1.90;63.64
20656;BME280;10487;53.320;8.672;2023-02-15T04:50:11;102544.97;;;-1.90;63.31
20656;BME280;10487;53.320;8.672;2023-02-15T04:53:12;102545.81;;;-1.91;63.75
20656;BME280;10487;53.320;8.672;2023-02-15T04:56:15;102531.84;;;-1.96;63.37
20656;BME280;10487;53.320;8.672;2023-02-15T04:59:16;102537.94;;;-2.00;63.48
20656;BME280;10487;53.320;8.672;2023-02-15T05:02:18;102532.66;;;-2.03;63.74
20656;BME280;10487;53.320;8.672;2023-02-15T05:05:19;102533.53;;;-2.04;63.40
20656;BME280;10487;53.320;8.672;2023-02-15T05:08:21;102525.66;;;-2.07;63.46
20656;BME280;10487;53.320;8.672;2023-02-15T05:11:22;102524.78;;;-2.11;63.64
20656;BME280;10487;53.320;8.672;2023-02-15T05:14:24;102525.66;;;-2.10;63.61
20656;BME280;10487;53.320;8.672;2023-02-15T05:17:26;102523.03;;;-2.10;63.34
20656;BME280;10487;53.320;8.672;2023-02-15T05:20:27;102523.88;;;-2.11;63.75
20656;BME280;10487;53.320;8.672;2023-02-15T05:23:29;102518.66;;;-2.11;63.37
20656;BME280;10487;53.320;8.672;2023-02-15T05:26:30;102516.03;;;-2.13;63.32
20656;BME280;10487;53.320;8.672;2023-02-15T05:29:51;102520.38;;;-2.16;63.22
20656;BME280;10487;53.320;8.672;2023-02-15T05:32:52;102519.47;;;-2.21;63.45
20656;BME280;10487;53.320;8.672;2023-02-15T05:35:54;102524.66;;;-2.24;63.56
20656;BME280;10487;53.320;8.672;2023-02-15T05:38:56;102515.94;;;-2.26;63.57
20656;BME280;10487;53.320;8.672;2023-02-15T05:42:00;102515.06;;;-2.28;63.61
20656;BME280;10487;53.320;8.672;2023-02-15T05:45:02;102513.28;;;-2.29;63.75
20656;BME280;10487;53.320;8.672;2023-02-15T05:48:05;102509.78;;;-2.31;63.63
20656;BME280;10487;53.320;8.672;2023-02-15T05:51:09;102508.91;;;-2.35;63.24
20656;BME280;10487;53.320;8.672;2023-02-15T05:54:11;102515.84;;;-2.37;63.45
20656;BME280;10487;53.320;8.672;2023-02-15T05:57:12;102506.28;;;-2.37;63.41
20656;BME280;10487;53.320;8.672;2023-02-15T06:00:14;102494.94;;;-2.37;63.34
20656;BME280;10487;53.320;8.672;2023-02-15T06:03:16;102500.16;;;-2.37;63.61
20656;BME280;10487;53.320;8.672;2023-02-15T06:06:18;102499.28;;;-2.41;63.29
20656;BME280;10487;53.320;8.672;2023-02-15T06:09:19;102499.25;;;-2.44;63.40
20656;BME280;10487;53.320;8.672;2023-02-15T06:12:21;102499.25;;;-2.44;63.38
20656;BME280;10487;53.320;8.672;2023-02-15T06:15:23;102494.88;;;-2.46;63.47
20656;BME280;10487;53.320;8.672;2023-02-15T06:18:24;102493.13;;;-2.49;63.28
20656;BME280;10487;53.320;8.672;2023-02-15T06:21:26;102493.06;;;-2.52;63.49
20656;BME280;10487;53.320;8.672;2023-02-15T06:24:27;102490.44;;;-2.56;63.56
20656;BME280;10487;53.320;8.672;2023-02-15T06:27:29;102494.78;;;-2.58;63.40
20656;BME280;10487;53.320;8.672;2023-02-15T06:30:31;102492.13;;;-2.61;63.71
20656;BME280;10487;53.320;8.672;2023-02-15T06:33:33;102481.66;;;-2.66;63.67
20656;BME280;10487;53.320;8.672;2023-02-15T06:36:37;102492.09;;;-2.67;63.42
20656;BME280;10487;53.320;8.672;2023-02-15T06:39:39;102490.47;;;-2.52;64.23
20656;BME280;10487;53.320;8.672;2023-02-15T06:42:41;102479.44;;;-2.07;64.61
20656;BME280;10487;53.320;8.672;2023-02-15T06:45:43;102479.47;;;-2.01;63.95
20656;BME280;10487;53.320;8.672;2023-02-15T06:48:45;102472.50;;;-2.03;63.62
20656;BME280;10487;53.320;8.672;2023-02-15T06:51:46;102476.81;;;-2.08;63.26
20656;BME280;10487;53.320;8.672;2023-02-15T06:54:48;102478.53;;;-2.13;63.59
20656;BME280;10487;53.320;8.672;2023-02-15T06:57:50;102476.78;;;-2.17;63.43
20656;BME280;10487;53.320;8.672;2023-02-15T07:00:51;102482.88;;;-2.20;63.57
20656;BME280;10487;53.320;8.672;2023-02-15T07:03:53;102475.00;;;-2.21;63.72
20656;BME280;10487;53.320;8.672;2023-02-15T07:06:55;102479.34;;;-2.23;63.42
20656;BME280;10487;53.320;8.672;2023-02-15T07:09:57;102481.06;;;-2.27;63.59
20656;BME280;10487;53.320;8.672;2023-02-15T07:12:58;102476.69;;;-2.32;63.59
20656;BME280;10487;53.320;8.672;2023-02-15T07:16:00;102480.13;;;-2.37;63.76
20656;BME280;10487;53.320;8.672;2023-02-15T07:19:02;102472.28;;;-2.38;63.60
20656;BME280;10487;53.320;8.672;2023-02-15T07:22:03;102465.28;;;-2.39;63.43
20656;BME280;10487;53.320;8.672;2023-02-15T07:25:08;102466.16;;;-2.39;63.04
20656;BME280;10487;53.320;8.672;2023-02-15T07:28:10;102472.28;;;-2.38;63.60
20656;BME280;10487;53.320;8.672;2023-02-15T07:31:12;102469.75;;;-2.27;63.97
20656;BME280;10487;53.320;8.672;2023-02-15T07:34:14;102469.00;;;-2.04;63.93
20656;BME280;10487;53.320;8.672;2023-02-15T07:37:15;102468.13;;;-2.00;63.49
20656;BME280;10487;53.320;8.672;2023-02-15T07:40:17;102460.31;;;-1.98;63.43
20656;BME280;10487;53.320;8.672;2023-02-15T07:43:19;102470.84;;;-1.83;64.04
20656;BME280;10487;53.320;8.672;2023-02-15T07:46:20;102460.50;;;-1.47;64.15
20656;BME280;10487;53.320;8.672;2023-02-15T07:49:22;102464.06;;;-1.36;63.69
20656;BME280;10487;53.320;8.672;2023-02-15T07:52:25;102460.56;;;-1.36;63.43
20656;BME280;10487;53.320;8.672;2023-02-15T07:55:27;102465.75;;;-1.38;63.33
20656;BME280;10487;53.320;8.672;2023-02-15T07:58:28;102462.28;;;-1.40;63.45
20656;BME280;10487;53.320;8.672;2023-02-15T08:01:49;102468.41;;;-1.41;63.52
20656;BME280;10487;53.320;8.672;2023-02-15T08:04:50;102457.03;;;-1.43;63.71
20656;BME280;10487;53.320;8.672;2023-02-15T08:07:52;102457.94;;;-1.41;63.44
20656;BME280;10487;53.320;8.672;2023-02-15T08:10:57;102466.66;;;-1.36;63.36
20656;BME280;10487;53.320;8.672;2023-02-15T08:14:34;102465.81;;;-1.27;63.44
20656;BME280;10487;53.320;8.672;2023-02-15T08:17:36;102461.47;;;-1.19;63.31
20656;BME280;10487;53.320;8.672;2023-02-15T08:20:38;102444.00;;;-1.19;63.30
20656;BME280;10487;53.320;8.672;2023-02-15T08:23:40;102451.84;;;-1.17;63.24
20656;BME280;10487;53.320;8.672;2023-02-15T08:26:41;102457.09;;;-1.14;63.34
20656;BME280;10487;53.320;8.672;2023-02-15T08:29:44;102456.22;;;-1.15;63.15
20656;BME280;10487;53.320;8.672;2023-02-15T08:32:45;102447.50;;;-1.14;63.14
20656;BME280;10487;53.320;8.672;2023-02-15T08:35:47;102451.88;;;-1.10;63.30
20656;BME280;10487;53.320;8.672;2023-02-15T08:38:49;102445.75;;;-1.06;63.21
20656;BME280;10487;53.320;8.672;2023-02-15T08:41:51;102444.88;;;-1.03;63.32
20656;BME280;10487;53.320;8.672;2023-02-15T08:44:52;102437.91;;;-0.99;63.19
20656;BME280;10487;53.320;8.672;2023-02-15T08:47:54;102434.41;;;-0.95;63.39
20656;BME280;10487;53.320;8.672;2023-02-15T08:50:55;102431.81;;;-0.91;63.47
20656;BME280;10487;53.320;8.672;2023-02-15T08:53:59;102427.44;;;-0.86;63.26
20656;BME280;10487;53.320;8.672;2023-02-15T08:57:01;102427.41;;;-0.80;63.36
20656;BME280;10487;53.320;8.672;2023-02-15T09:00:03;102428.28;;;-0.73;63.51
20656;BME280;10487;53.320;8.672;2023-02-15T09:03:06;102429.16;;;-0.67;63.31
20656;BME280;10487;53.320;8.672;2023-02-15T09:06:07;102416.03;;;-0.62;63.52
20656;BME280;10487;53.320;8.672;2023-02-15T09:09:10;102412.53;;;-0.55;63.29
20656;BME280;10487;53.320;8.672;2023-02-15T09:12:11;102401.16;;;-0.50;63.15
20656;BME280;10487;53.320;8.672;2023-02-15T09:15:13;102395.88;;;-0.44;63.35
20656;BME280;10487;53.320;8.672;2023-02-15T09:18:15;102398.50;;;-0.36;63.46
20656;BME280;10487;53.320;8.672;2023-02-15T09:21:21;102399.22;;;0.11;64.52
20656;BME280;10487;53.320;8.672;2023-02-15T09:24:23;102406.06;;;0.40;64.28
20656;BME280;10487;53.320;8.672;2023-02-15T09:27:24;102405.09;;;0.56;63.97
20656;BME280;10487;53.320;8.672;2023-02-15T09:30:26;102400.63;;;0.71;63.94
20656;BME280;10487;53.320;8.672;2023-02-15T09:33:28;102394.41;;;0.86;63.73
20656;BME280;10487;53.320;8.672;2023-02-15T09:36:37;102406.56;;;1.02;63.73
20656;BME280;10487;53.320;8.672;2023-02-15T09:39:41;102408.97;;;1.26;63.92
20656;BME280;10487;53.320;8.672;2023-02-15T09:43:16;102403.50;;;1.47;63.75
20656;BME280;10487;53.320;8.672;2023-02-15T09:53:15;102412.63;;;1.95;63.81
20656;BME280;10487;53.320;8.672;2023-02-15T10:19:46;102412.28;;;3.40;63.60
20656;BME280;10487;53.320;8.672;2023-02-15T10:26:21;102400.19;;;3.74;63.65
20656;BME280;10487;53.320;8.672;2023-02-15T10:29:49;102391.91;;;3.92;63.39
20656;BME280;10487;53.320;8.672;2023-02-15T10:33:02;102388.91;;;4.09;63.62
20656;BME280;10487;53.320;8.672;2023-02-15T10:36:37;102394.69;;;4.26;63.60
20656;BME280;10487;53.320;8.672;2023-02-15T10:40:22;102387.22;;;4.46;63.46
20656;BME280;10487;53.320;8.672;2023-02-15T10:44:12;102378.13;;;4.58;63.44
20656;BME280;10487;53.320;8.672;2023-02-15T10:50:46;102379.22;;;4.86;63.51
20656;BME280;10487;53.320;8.672;2023-02-15T10:54:08;102375.28;;;5.02;63.38
20656;BME280;10487;53.320;8.672;2023-02-15T11:00:23;102367.50;;;5.31;63.33
20656;BME280;10487;53.320;8.672;2023-02-15T11:03:39;102368.00;;;5.46;63.30
20656;BME280;10487;53.320;8.672;2023-02-15T11:06:49;102368.47;;;5.61;63.45
20656;BME280;10487;53.320;8.672;2023-02-15T11:13:36;102362.25;;;5.93;63.23
20656;BME280;10487;53.320;8.672;2023-02-15T11:16:44;102358.44;;;6.03;63.24
20656;BME280;10487;53.320;8.672;2023-02-15T11:20:08;102345.72;;;6.14;63.40
20656;BME280;10487;53.320;8.672;2023-02-15T11:23:16;102347.94;;;6.28;63.29
20656;BME280;10487;53.320;8.672;2023-02-15T11:26:33;102345.81;;;6.39;63.26
20656;BME280;10487;53.320;8.672;2023-02-15T11:32:55;102332.78;;;6.60;63.29
20656;BME280;10487;53.320;8.672;2023-02-15T11:36:03;102336.09;;;6.67;62.99
20656;BME280;10487;53.320;8.672;2023-02-15T11:39:11;102334.28;;;6.69;62.91
20656;BME280;10487;53.320;8.672;2023-02-15T11:42:19;102333.28;;;6.73;62.98
20656;BME280;10487;53.320;8.672;2023-02-15T11:45:31;102334.00;;;6.78;63.00
20656;BME280;10487;53.320;8.672;2023-02-15T11:48:33;102325.09;;;6.79;62.90
20656;BME280;10487;53.320;8.672;2023-02-15T11:51:35;102322.41;;;6.81;63.03
20656;BME280;10487;53.320;8.672;2023-02-15T11:54:41;102313.41;;;6.85;62.88
20656;BME280;10487;53.320;8.672;2023-02-15T11:57:52;102312.44;;;6.87;62.98
20656;BME280;10487;53.320;8.672;2023-02-15T12:01:04;102303.53;;;6.90;62.76
20656;BME280;10487;53.320;8.672;2023-02-15T12:07:44;102291.59;;;7.01;62.93
20656;BME280;10487;53.320;8.672;2023-02-15T12:11:05;102290.53;;;7.07;62.89
20656;BME280;10487;53.320;8.672;2023-02-15T12:14:13;102285.03;;;7.13;62.86
20656;BME280;10487;53.320;8.672;2023-02-15T12:17:18;102280.44;;;7.18;62.70
20656;BME280;10487;53.320;8.672;2023-02-15T12:20:29;102275.69;;;7.26;62.85
20656;BME280;10487;53.320;8.672;2023-02-15T12:23:33;102275.31;;;7.37;62.80
20656;BME280;10487;53.320;8.672;2023-02-15T12:26:35;102275.84;;;7.46;62.92
20656;BME280;10487;53.320;8.672;2023-02-15T12:29:43;102277.22;;;7.56;62.77
20656;BME280;10487;53.320;8.672;2023-02-15T12:36:32;102271.28;;;7.73;62.48
20656;BME280;10487;53.320;8.672;2023-02-15T12:39:34;102263.09;;;7.79;62.49
20656;BME280;10487;53.320;8.672;2023-02-15T12:42:43;102264.66;;;7.84;62.63
20656;BME280;10487;53.320;8.672;2023-02-15T12:45:45;102262.72;;;7.88;62.46
20656;BME280;10487;53.320;8.672;2023-02-15T12:49:05;102252.84;;;7.91;62.32
20656;BME280;10487;53.320;8.672;2023-02-15T12:55:26;102244.75;;;7.94;62.57
20656;BME280;10487;53.320;8.672;2023-02-15T12:58:38;102236.63;;;7.97;62.46
20656;BME280;10487;53.320;8.672;2023-02-15T13:01:41;102234.66;;;8.02;62.66
20656;BME280;10487;53.320;8.672;2023-02-15T13:04:48;102242.38;;;8.10;62.32
20656;BME280;10487;53.320;8.672;2023-02-15T13:07:54;102243.88;;;8.17;62.55
20656;BME280;10487;53.320;8.672;2023-02-15T13:11:04;102241.25;;;8.37;62.72
20656;BME280;10487;53.320;8.672;2023-02-15T13:14:20;102243.44;;;8.70;62.83
20656;BME280;10487;53.320;8.672;2023-02-15T13:17:26;102239.69;;;8.95;62.64
20656;BME280;10487;53.320;8.672;2023-02-15T13:20:32;102231.28;;;9.04;62.28
20656;BME280;10487;53.320;8.672;2023-02-15T13:23:37;102239.22;;;9.06;62.28
20656;BME280;10487;53.320;8.672;2023-02-15T13:26:41;102228.63;;;9.04;62.10
20656;BME280;10487;53.320;8.672;2023-02-15T13:29:55;102225.16;;;9.02;62.13
20656;BME280;10487;53.320;8.672;2023-02-15T13:33:25;102213.94;;;8.96;61.89
20656;BME280;10487;53.320;8.672;2023-02-15T13:43:50;102212.94;;;8.78;62.03
20656;BME280;10487;53.320;8.672;2023-02-15T13:54:20;102217.84;;;9.07;62.40
20656;BME280;10487;53.320;8.672;2023-02-15T14:20:44;102194.06;;;10.33;61.72
20656;BME280;10487;53.320;8.672;2023-02-15T14:30:45;102176.16;;;10.54;61.47
20656;BME280;10487;53.320;8.672;2023-02-15T14:33:56;102172.63;;;10.53;61.46
20656;BME280;10487;53.320;8.672;2023-02-15T14:36:58;102182.97;;;10.42;61.41
20656;BME280;10487;53.320;8.672;2023-02-15T14:44:01;102175.28;;;10.01;61.31
20656;BME280;10487;53.320;8.672;2023-02-15T14:47:22;102177.03;;;9.83;61.35
20656;BME280;10487;53.320;8.672;2023-02-15T14:53:35;102166.25;;;9.49;61.35
20656;BME280;10487;53.320;8.672;2023-02-15T14:56:37;102174.97;;;9.34;61.51
20656;BME280;10487;53.320;8.672;2023-02-15T14:59:46;102179.06;;;9.20;61.49
20656;BME280;10487;53.320;8.672;2023-02-15T15:02:53;102163.56;;;9.10;61.54
20656;BME280;10487;53.320;8.672;2023-02-15T15:05:56;102162.25;;;9.00;61.49
20656;BME280;10487;53.320;8.672;2023-02-15T15:24:51;102127.22;;;8.30;61.50
20656;BME280;10487;53.320;8.672;2023-02-15T15:27:54;102130.34;;;8.19;61.42
20656;BME280;10487;53.320;8.672;2023-02-15T15:30:56;102125.47;;;8.09;61.60
20656;BME280;10487;53.320;8.672;2023-02-15T15:37:20;102114.03;;;7.85;61.55
20656;BME280;10487;53.320;8.672;2023-02-15T15:43:59;102122.09;;;7.60;61.91
20656;BME280;10487;53.320;8.672;2023-02-15T15:50:30;102115.66;;;8.31;62.31
20656;BME280;10487;53.320;8.672;2023-02-15T15:53:38;102110.59;;;8.65;62.00
20656;BME280;10487;53.320;8.672;2023-02-15T15:56:44;102112.97;;;8.91;61.71
20656;BME280;10487;53.320;8.672;2023-02-15T15:59:49;102104.81;;;8.94;61.04
20656;BME280;10487;53.320;8.672;2023-02-15T16:02:51;102101.94;;;8.80;60.80
20656;BME280;10487;53.320;8.672;2023-02-15T16:05:54;102088.84;;;8.55;60.73
20656;BME280;10487;53.320;8.672;2023-02-15T16:08:57;102101.44;;;8.32;60.92
20656;BME280;10487;53.320;8.672;2023-02-15T16:11:59;102094.56;;;8.06;61.18
20656;BME280;10487;53.320;8.672;2023-02-15T16:15:14;102092.81;;;7.83;61.16
20656;BME280;10487;53.320;8.672;2023-02-15T16:18:17;102094.63;;;7.61;61.17
20656;BME280;10487;53.320;8.672;2023-02-15T16:21:23;102091.84;;;7.43;61.50
20656;BME280;10487;53.320;8.672;2023-02-15T16:27:52;102110.75;;;7.12;61.49
20656;BME280;10487;53.320;8.672;2023-02-15T16:31:07;102104.09;;;7.00;61.50
20656;BME280;10487;53.320;8.672;2023-02-15T16:34:16;102102.66;;;6.92;61.56
20656;BME280;10487;53.320;8.672;2023-02-15T16:37:26;102106.28;;;6.89;61.58
20656;BME280;10487;53.320;8.672;2023-02-15T16:40:38;102100.44;;;6.80;61.51
20656;BME280;10487;53.320;8.672;2023-02-15T16:43:42;102103.53;;;6.67;61.26
20656;BME280;10487;53.320;8.672;2023-02-15T16:46:49;102108.31;;;6.56;61.62
20656;BME280;10487;53.320;8.672;2023-02-15T16:49:55;102105.13;;;6.47;61.29
20656;BME280;10487;53.320;8.672;2023-02-15T16:52:59;102106.38;;;6.37;61.45
20656;BME280;10487;53.320;8.672;2023-02-15T16:56:03;102108.38;;;6.30;61.50
20656;BME280;10487;53.320;8.672;2023-02-15T16:59:05;102101.56;;;6.23;61.40
20656;BME280;10487;53.320;8.672;2023-02-15T17:02:15;102091.31;;;6.13;61.40
20656;BME280;10487;53.320;8.672;2023-02-15T17:05:44;102085.50;;;6.01;61.27
20656;BME280;10487;53.320;8.672;2023-02-15T17:08:46;102085.09;;;5.89;61.16
20656;BME280;10487;53.320;8.672;2023-02-15T17:11:48;102098.59;;;5.80;61.33
20656;BME280;10487;53.320;8.672;2023-02-15T17:14:54;102100.63;;;5.72;61.26
20656;BME280;10487;53.320;8.672;2023-02-15T17:17:59;102105.28;;;5.65;61.19
20656;BME280;10487;53.320;8.672;2023-02-15T17:21:10;102095.78;;;5.58;61.25
20656;BME280;10487;53.320;8.672;2023-02-15T17:24:22;102084.31;;;5.58;61.04
20656;BME280;10487;53.320;8.672;2023-02-15T17:27:28;102080.97;;;5.53;61.10
20656;BME280;10487;53.320;8.672;2023-02-15T17:30:34;102085.59;;;5.46;61.01
20656;BME280;10487;53.320;8.672;2023-02-15T17:33:39;102078.69;;;5.40;61.04
20656;BME280;10487;53.320;8.672;2023-02-15T17:36:57;102073.09;;;5.50;61.43
20656;BME280;10487;53.320;8.672;2023-02-15T17:40:00;102067.00;;;5.48;61.00
20656;BME280;10487;53.320;8.672;2023-02-15T17:43:03;102068.09;;;5.40;60.94
20656;BME280;10487;53.320;8.672;2023-02-15T17:46:04;102071.81;;;5.35;61.09
20656;BME280;10487;53.320;8.672;2023-02-15T17:49:06;102080.81;;;5.29;60.94
20656;BME280;10487;53.320;8.672;2023-02-15T17:52:12;102070.41;;;5.23;61.05
20656;BME280;10487;53.320;8.672;2023-02-15T17:55:17;102074.91;;;5.20;60.87
20656;BME280;10487;53.320;8.672;2023-02-15T17:58:40;102072.41;;;5.17;60.93
20656;BME280;10487;53.320;8.672;2023-02-15T18:01:45;102075.06;;;5.15;60.92
20656;BME280;10487;53.320;8.672;2023-02-15T18:05:12;102073.38;;;5.13;61.13
20656;BME280;10487;53.320;8.672;2023-02-15T18:08:32;102070.75;;;5.11;60.87
20656;BME280;10487;53.320;8.672;2023-02-15T18:11:53;102069.97;;;5.08;60.77
20656;BME280;10487;53.320;8.672;2023-02-15T18:14:55;102063.88;;;5.06;60.79
20656;BME280;10487;53.320;8.672;2023-02-15T18:17:57;102073.66;;;5.02;60.67
20656;BME280;10487;53.320;8.672;2023-02-15T18:20:59;102072.84;;;5.00;60.71
20656;BME280;10487;53.320;8.672;2023-02-15T18:24:01;102073.81;;;4.98;60.77
20656;BME280;10487;53.320;8.672;2023-02-15T18:27:03;102076.56;;;4.95;60.76
20656;BME280;10487;53.320;8.672;2023-02-15T18:30:06;102080.19;;;4.91;60.59
20656;BME280;10487;53.320;8.672;2023-02-15T18:33:37;102076.81;;;4.86;60.76
20656;BME280;10487;53.320;8.672;2023-02-15T18:36:43;102073.50;;;4.79;60.59
20656;BME280;10487;53.320;8.672;2023-02-15T18:39:47;102076.34;;;4.71;60.80
20656;BME280;10487;53.320;8.672;2023-02-15T18:42:49;102077.34;;;4.67;60.67
20656;BME280;10487;53.320;8.672;2023-02-15T18:45:51;102073.91;;;4.64;60.63
20656;BME280;10487;53.320;8.672;2023-02-15T18:48:52;102081.06;;;4.60;60.69
20656;BME280;10487;53.320;8.672;2023-02-15T18:51:54;102082.13;;;4.55;60.71
20656;BME280;10487;53.320;8.672;2023-02-15T18:54:58;102089.19;;;4.53;60.50
20656;BME280;10487;53.320;8.672;2023-02-15T18:58:02;102090.19;;;4.49;60.59
20656;BME280;10487;53.320;8.672;2023-02-15T19:01:03;102101.78;;;4.45;60.61